sensor_id;sensor_type;location;lat;lon;timestamp;P1;durP1;ratioP1;P2;durP2;ratioP2
71475;SDS011;59286;59.274;17.974;2023-04-01T00:00:03;3.78;;;2.05;;
71475;SDS011;59286;59.274;17.974;2023-04-01T00:02:29;2.80;;;1.98;;
71475;SDS011;59286;59.274;17.974;2023-04-01T00:04:54;3.33;;;1.95;;
71475;SDS011;59286;59.274;17.974;2023-04-01T00:07:19;3.08;;;1.77;;
71475;SDS011;59286;59.274;17.974;2023-04-01T00:09:45;5.40;;;2.22;;
71475;SDS011;59286;59.274;17.974;2023-04-01T00:12:10;2.38;;;2.13;;
71475;SDS011;59286;59.274;17.974;2023-04-01T00:14:36;3.22;;;2.10;;
71475;SDS011;59286;59.274;17.974;2023-04-01T00:17:02;3.08;;;1.75;;
71475;SDS011;59286;59.274;17.974;2023-04-01T00:19:27;3.05;;;2.17;;
71475;SDS011;59286;59.274;17.974;2023-04-01T00:21:53;3.45;;;2.28;;
71475;SDS011;59286;59.274;17.974;2023-04-01T00:24:18;2.00;;;1.80;;
71475;SDS011;59286;59.274;17.974;2023-04-01T00:26:44;2.60;;;2.03;;
71475;SDS011;59286;59.274;17.974;2023-04-01T00:29:09;5.45;;;2.47;;
71475;SDS011;59286;59.274;17.974;2023-04-01T00:31:35;2.45;;;2.03;;
71475;SDS011;59286;59.274;17.974;2023-04-01T00:34:00;3.17;;;2.30;;
71475;SDS011;59286;59.274;17.974;2023-04-01T00:36:26;3.22;;;2.20;;
71475;SDS011;59286;59.274;17.974;2023-04-01T00:38:51;2.17;;;1.90;;
71475;SDS011;59286;59.274;17.974;2023-04-01T00:41:17;3.53;;;2.45;;
71475;SDS011;59286;59.274;17.974;2023-04-01T00:43:46;2.92;;;2.20;;
71475;SDS011;59286;59.274;17.974;2023-04-01T00:46:13;3.88;;;2.17;;
71475;SDS011;59286;59.274;17.974;2023-04-01T00:48:40;3.63;;;2.13;;
71475;SDS011;59286;59.274;17.974;2023-04-01T00:51:11;5.35;;;2.20;;
71475;SDS011;59286;59.274;17.974;2023-04-01T00:53:41;3.47;;;2.17;;
71475;SDS011;59286;59.274;17.974;2023-04-01T00:56:12;3.53;;;2.15;;
71475;SDS011;59286;59.274;17.974;2023-04-01T00:58:44;3.83;;;2.00;;
71475;SDS011;59286;59.274;17.974;2023-04-01T01:01:13;3.25;;;1.95;;
71475;SDS011;59286;59.274;17.974;2023-04-01T01:03:39;4.93;;;2.22;;
71475;SDS011;59286;59.274;17.974;2023-04-01T01:09:22;3.85;;;1.90;;
71475;SDS011;59286;59.274;17.974;2023-04-01T01:14:40;5.70;;;2.30;;
71475;SDS011;59286;59.274;17.974;2023-04-01T01:17:10;3.67;;;2.25;;
71475;SDS011;59286;59.274;17.974;2023-04-01T01:19:52;3.58;;;2.10;;
71475;SDS011;59286;59.274;17.974;2023-04-01T01:27:33;4.60;;;2.17;;
71475;SDS011;59286;59.274;17.974;2023-04-01T01:32:51;3.58;;;2.40;;
71475;SDS011;59286;59.274;17.974;2023-04-01T01:38:16;3.40;;;2.05;;
71475;SDS011;59286;59.274;17.974;2023-04-01T01:40:44;3.28;;;2.60;;
71475;SDS011;59286;59.274;17.974;2023-04-01T01:43:14;3.67;;;1.83;;
71475;SDS011;59286;59.274;17.974;2023-04-01T01:45:44;4.00;;;2.00;;
71475;SDS011;59286;59.274;17.974;2023-04-01T01:48:14;3.70;;;1.88;;
71475;SDS011;59286;59.274;17.974;2023-04-01T01:50:41;3.08;;;2.08;;
71475;SDS011;59286;59.274;17.974;2023-04-01T01:53:09;4.50;;;1.85;;
71475;SDS011;59286;59.274;17.974;2023-04-01T01:55:37;3.47;;;2.35;;
71475;SDS011;59286;59.274;17.974;2023-04-01T01:58:22;4.72;;;2.08;;
71475;SDS011;59286;59.274;17.974;2023-04-01T02:00:55;3.33;;;1.90;;
71475;SDS011;59286;59.274;17.974;2023-04-01T02:03:24;4.75;;;2.30;;
71475;SDS011;59286;59.274;17.974;2023-04-01T02:05:52;2.78;;;1.95;;
71475;SDS011;59286;59.274;17.974;2023-04-01T02:08:22;4.53;;;1.88;;
71475;SDS011;59286;59.274;17.974;2023-04-01T02:11:02;3.13;;;1.90;;
71475;SDS011;59286;59.274;17.974;2023-04-01T02:13:34;2.85;;;2.00;;
71475;SDS011;59286;59.274;17.974;2023-04-01T02:16:02;5.10;;;2.20;;
71475;SDS011;59286;59.274;17.974;2023-04-01T02:18:32;3.33;;;2.00;;
71475;SDS011;59286;59.274;17.974;2023-04-01T02:21:00;2.72;;;1.90;;
71475;SDS011;59286;59.274;17.974;2023-04-01T02:23:27;2.85;;;1.88;;
71475;SDS011;59286;59.274;17.974;2023-04-01T02:25:53;4.22;;;2.05;;
71475;SDS011;59286;59.274;17.974;2023-04-01T02:28:19;2.97;;;1.83;;
71475;SDS011;59286;59.274;17.974;2023-04-01T02:30:45;3.53;;;2.10;;
71475;SDS011;59286;59.274;17.974;2023-04-01T02:33:13;4.07;;;1.73;;
71475;SDS011;59286;59.274;17.974;2023-04-01T02:35:39;5.05;;;2.03;;
71475;SDS011;59286;59.274;17.974;2023-04-01T02:38:05;5.40;;;2.10;;
71475;SDS011;59286;59.274;17.974;2023-04-01T02:40:40;3.65;;;2.08;;
71475;SDS011;59286;59.274;17.974;2023-04-01T02:43:07;3.78;;;2.08;;
71475;SDS011;59286;59.274;17.974;2023-04-01T02:45:32;3.60;;;1.92;;
71475;SDS011;59286;59.274;17.974;2023-04-01T02:47:58;3.58;;;2.03;;
71475;SDS011;59286;59.274;17.974;2023-04-01T02:50:23;2.05;;;1.85;;
71475;SDS011;59286;59.274;17.974;2023-04-01T02:52:48;3.92;;;1.90;;
71475;SDS011;59286;59.274;17.974;2023-04-01T02:55:14;3.28;;;1.75;;
71475;SDS011;59286;59.274;17.974;2023-04-01T02:57:39;2.60;;;1.70;;
71475;SDS011;59286;59.274;17.974;2023-04-01T03:00:05;2.70;;;1.92;;
71475;SDS011;59286;59.274;17.974;2023-04-01T03:02:36;3.90;;;2.30;;
71475;SDS011;59286;59.274;17.974;2023-04-01T03:05:02;2.75;;;2.03;;
71475;SDS011;59286;59.274;17.974;2023-04-01T03:07:27;3.95;;;2.08;;
71475;SDS011;59286;59.274;17.974;2023-04-01T03:09:53;2.40;;;2.00;;
71475;SDS011;59286;59.274;17.974;2023-04-01T03:12:18;5.22;;;2.25;;
71475;SDS011;59286;59.274;17.974;2023-04-01T03:14:43;2.17;;;1.90;;
71475;SDS011;59286;59.274;17.974;2023-04-01T03:17:08;2.28;;;2.00;;
71475;SDS011;59286;59.274;17.974;2023-04-01T03:19:34;3.33;;;2.17;;
71475;SDS011;59286;59.274;17.974;2023-04-01T03:21:59;4.50;;;2.10;;
71475;SDS011;59286;59.274;17.974;2023-04-01T03:24:25;2.65;;;1.98;;
71475;SDS011;59286;59.274;17.974;2023-04-01T03:26:50;2.67;;;2.00;;
71475;SDS011;59286;59.274;17.974;2023-04-01T03:29:15;3.80;;;2.00;;
71475;SDS011;59286;59.274;17.974;2023-04-01T03:31:41;5.03;;;2.08;;
71475;SDS011;59286;59.274;17.974;2023-04-01T03:34:06;4.13;;;2.20;;
71475;SDS011;59286;59.274;17.974;2023-04-01T03:36:32;5.03;;;1.75;;
71475;SDS011;59286;59.274;17.974;2023-04-01T03:38:57;2.85;;;1.73;;
71475;SDS011;59286;59.274;17.974;2023-04-01T03:41:23;2.80;;;2.20;;
71475;SDS011;59286;59.274;17.974;2023-04-01T03:43:48;2.38;;;2.05;;
71475;SDS011;59286;59.274;17.974;2023-04-01T03:46:17;4.18;;;2.10;;
71475;SDS011;59286;59.274;17.974;2023-04-01T03:48:43;3.22;;;2.03;;
71475;SDS011;59286;59.274;17.974;2023-04-01T03:51:09;4.15;;;2.20;;
71475;SDS011;59286;59.274;17.974;2023-04-01T03:53:34;4.53;;;1.95;;
71475;SDS011;59286;59.274;17.974;2023-04-01T03:56:03;3.45;;;2.10;;
71475;SDS011;59286;59.274;17.974;2023-04-01T03:58:31;5.68;;;1.90;;
71475;SDS011;59286;59.274;17.974;2023-04-01T04:00:56;3.40;;;2.20;;
71475;SDS011;59286;59.274;17.974;2023-04-01T04:03:22;4.43;;;1.80;;
71475;SDS011;59286;59.274;17.974;2023-04-01T04:05:48;3.28;;;2.30;;
71475;SDS011;59286;59.274;17.974;2023-04-01T04:08:14;5.32;;;2.35;;
71475;SDS011;59286;59.274;17.974;2023-04-01T04:10:40;3.65;;;1.90;;
71475;SDS011;59286;59.274;17.974;2023-04-01T04:13:06;2.45;;;1.90;;
71475;SDS011;59286;59.274;17.974;2023-04-01T04:15:31;4.03;;;1.95;;
71475;SDS011;59286;59.274;17.974;2023-04-01T04:17:57;5.60;;;2.38;;
71475;SDS011;59286;59.274;17.974;2023-04-01T04:20:22;4.95;;;2.00;;
71475;SDS011;59286;59.274;17.974;2023-04-01T04:22:47;2.95;;;1.77;;
71475;SDS011;59286;59.274;17.974;2023-04-01T04:25:12;2.17;;;1.98;;
71475;SDS011;59286;59.274;17.974;2023-04-01T04:27:38;4.22;;;2.00;;
71475;SDS011;59286;59.274;17.974;2023-04-01T04:30:04;3.95;;;1.92;;
71475;SDS011;59286;59.274;17.974;2023-04-01T04:32:31;3.15;;;2.33;;
71475;SDS011;59286;59.274;17.974;2023-04-01T04:34:56;2.83;;;1.70;;
71475;SDS011;59286;59.274;17.974;2023-04-01T04:37:21;3.38;;;2.00;;
71475;SDS011;59286;59.274;17.974;2023-04-01T04:39:47;3.15;;;2.10;;
71475;SDS011;59286;59.274;17.974;2023-04-01T04:42:12;4.85;;;1.98;;
71475;SDS011;59286;59.274;17.974;2023-04-01T04:44:37;3.13;;;1.85;;
71475;SDS011;59286;59.274;17.974;2023-04-01T04:47:04;5.57;;;2.03;;
71475;SDS011;59286;59.274;17.974;2023-04-01T04:49:30;2.13;;;1.70;;
71475;SDS011;59286;59.274;17.974;2023-04-01T04:51:56;2.90;;;1.83;;
71475;SDS011;59286;59.274;17.974;2023-04-01T04:54:21;5.00;;;2.08;;
71475;SDS011;59286;59.274;17.974;2023-04-01T04:56:47;3.05;;;2.00;;
71475;SDS011;59286;59.274;17.974;2023-04-01T04:59:12;3.80;;;2.03;;
71475;SDS011;59286;59.274;17.974;2023-04-01T05:01:37;5.60;;;1.92;;
71475;SDS011;59286;59.274;17.974;2023-04-01T05:04:03;3.55;;;1.60;;
71475;SDS011;59286;59.274;17.974;2023-04-01T05:06:29;4.07;;;1.90;;
71475;SDS011;59286;59.274;17.974;2023-04-01T05:08:54;5.57;;;1.98;;
71475;SDS011;59286;59.274;17.974;2023-04-01T05:11:20;7.57;;;1.70;;
71475;SDS011;59286;59.274;17.974;2023-04-01T05:13:46;1.85;;;1.75;;
71475;SDS011;59286;59.274;17.974;2023-04-01T05:16:12;5.22;;;1.65;;
71475;SDS011;59286;59.274;17.974;2023-04-01T05:18:40;3.75;;;1.83;;
71475;SDS011;59286;59.274;17.974;2023-04-01T05:21:07;4.35;;;1.70;;
71475;SDS011;59286;59.274;17.974;2023-04-01T05:23:33;2.33;;;1.92;;
71475;SDS011;59286;59.274;17.974;2023-04-01T05:26:02;2.10;;;1.45;;
71475;SDS011;59286;59.274;17.974;2023-04-01T05:28:31;3.78;;;1.50;;
71475;SDS011;59286;59.274;17.974;2023-04-01T05:31:00;3.50;;;1.40;;
71475;SDS011;59286;59.274;17.974;2023-04-01T05:33:27;3.78;;;1.60;;
71475;SDS011;59286;59.274;17.974;2023-04-01T05:35:53;7.93;;;1.75;;
71475;SDS011;59286;59.274;17.974;2023-04-01T05:38:19;4.82;;;1.60;;
71475;SDS011;59286;59.274;17.974;2023-04-01T05:40:45;3.70;;;1.67;;
71475;SDS011;59286;59.274;17.974;2023-04-01T05:43:10;1.77;;;1.33;;
71475;SDS011;59286;59.274;17.974;2023-04-01T05:45:36;3.92;;;1.70;;
71475;SDS011;59286;59.274;17.974;2023-04-01T05:48:02;4.13;;;1.58;;
71475;SDS011;59286;59.274;17.974;2023-04-01T05:50:27;3.75;;;1.50;;
71475;SDS011;59286;59.274;17.974;2023-04-01T05:52:53;1.63;;;1.40;;
71475;SDS011;59286;59.274;17.974;2023-04-01T05:55:19;2.72;;;1.30;;
71475;SDS011;59286;59.274;17.974;2023-04-01T05:57:45;5.15;;;1.30;;
71475;SDS011;59286;59.274;17.974;2023-04-01T06:00:11;3.28;;;1.40;;
71475;SDS011;59286;59.274;17.974;2023-04-01T06:02:37;4.18;;;1.60;;
71475;SDS011;59286;59.274;17.974;2023-04-01T06:05:13;2.55;;;1.42;;
71475;SDS011;59286;59.274;17.974;2023-04-01T06:07:42;3.95;;;1.30;;
71475;SDS011;59286;59.274;17.974;2023-04-01T06:10:17;3.50;;;1.58;;
71475;SDS011;59286;59.274;17.974;2023-04-01T06:21:01;3.92;;;1.50;;
71475;SDS011;59286;59.274;17.974;2023-04-01T06:23:57;2.53;;;1.35;;
71475;SDS011;59286;59.274;17.974;2023-04-01T06:26:48;4.47;;;1.63;;
71475;SDS011;59286;59.274;17.974;2023-04-01T06:32:45;2.33;;;1.50;;
71475;SDS011;59286;59.274;17.974;2023-04-01T06:35:31;2.28;;;1.75;;
71475;SDS011;59286;59.274;17.974;2023-04-01T06:40:50;4.60;;;1.48;;
71475;SDS011;59286;59.274;17.974;2023-04-01T06:43:33;1.10;;;1.00;;
71475;SDS011;59286;59.274;17.974;2023-04-01T06:48:49;3.75;;;1.10;;
71475;SDS011;59286;59.274;17.974;2023-04-01T06:51:39;3.20;;;1.30;;
71475;SDS011;59286;59.274;17.974;2023-04-01T06:54:20;4.55;;;1.15;;
71475;SDS011;59286;59.274;17.974;2023-04-01T06:56:51;3.58;;;1.52;;
71475;SDS011;59286;59.274;17.974;2023-04-01T06:59:24;3.35;;;1.20;;
71475;SDS011;59286;59.274;17.974;2023-04-01T07:02:05;1.83;;;1.20;;
71475;SDS011;59286;59.274;17.974;2023-04-01T07:04:46;4.47;;;1.08;;
71475;SDS011;59286;59.274;17.974;2023-04-01T07:09:50;4.38;;;1.15;;
71475;SDS011;59286;59.274;17.974;2023-04-01T07:12:28;2.90;;;1.25;;
71475;SDS011;59286;59.274;17.974;2023-04-01T07:14:55;2.22;;;0.90;;
71475;SDS011;59286;59.274;17.974;2023-04-01T07:17:25;2.40;;;0.90;;
71475;SDS011;59286;59.274;17.974;2023-04-01T07:19:53;2.00;;;1.00;;
71475;SDS011;59286;59.274;17.974;2023-04-01T07:22:38;6.55;;;0.98;;
71475;SDS011;59286;59.274;17.974;2023-04-01T07:28:03;3.25;;;0.90;;
71475;SDS011;59286;59.274;17.974;2023-04-01T07:36:03;3.63;;;1.20;;
71475;SDS011;59286;59.274;17.974;2023-04-01T07:38:39;3.22;;;1.13;;
71475;SDS011;59286;59.274;17.974;2023-04-01T07:44:13;1.67;;;0.82;;
71475;SDS011;59286;59.274;17.974;2023-04-01T07:46:53;2.40;;;1.00;;
71475;SDS011;59286;59.274;17.974;2023-04-01T07:52:09;2.25;;;1.05;;
71475;SDS011;59286;59.274;17.974;2023-04-01T07:57:31;5.03;;;0.90;;
71475;SDS011;59286;59.274;17.974;2023-04-01T08:05:26;3.97;;;0.80;;
71475;SDS011;59286;59.274;17.974;2023-04-01T08:11:12;5.43;;;0.70;;
71475;SDS011;59286;59.274;17.974;2023-04-01T08:13:57;3.87;;;0.73;;
71475;SDS011;59286;59.274;17.974;2023-04-01T08:16:56;2.05;;;0.90;;
71475;SDS011;59286;59.274;17.974;2023-04-01T08:22:26;4.32;;;0.75;;
71475;SDS011;59286;59.274;17.974;2023-04-01T08:24:56;3.73;;;0.90;;
71475;SDS011;59286;59.274;17.974;2023-04-01T08:30:24;1.85;;;0.63;;
71475;SDS011;59286;59.274;17.974;2023-04-01T08:32:58;2.78;;;0.80;;
71475;SDS011;59286;59.274;17.974;2023-04-01T08:35:38;2.75;;;0.90;;
71475;SDS011;59286;59.274;17.974;2023-04-01T08:38:12;1.75;;;0.82;;
71475;SDS011;59286;59.274;17.974;2023-04-01T08:43:33;1.80;;;0.70;;
71475;SDS011;59286;59.274;17.974;2023-04-01T08:51:47;2.85;;;0.70;;
71475;SDS011;59286;59.274;17.974;2023-04-01T08:57:35;3.42;;;0.80;;
71475;SDS011;59286;59.274;17.974;2023-04-01T09:00:37;1.35;;;0.75;;
71475;SDS011;59286;59.274;17.974;2023-04-01T09:22:27;4.50;;;0.80;;
71475;SDS011;59286;59.274;17.974;2023-04-01T09:28:28;4.07;;;0.70;;
71475;SDS011;59286;59.274;17.974;2023-04-01T09:31:20;3.00;;;0.70;;
71475;SDS011;59286;59.274;17.974;2023-04-01T09:34:10;2.83;;;0.80;;
71475;SDS011;59286;59.274;17.974;2023-04-01T09:39:53;7.57;;;0.65;;
71475;SDS011;59286;59.274;17.974;2023-04-01T09:45:00;3.35;;;0.70;;
71475;SDS011;59286;59.274;17.974;2023-04-01T09:56:10;3.63;;;0.50;;
71475;SDS011;59286;59.274;17.974;2023-04-01T10:18:04;2.05;;;0.57;;
71475;SDS011;59286;59.274;17.974;2023-04-01T10:35:51;3.78;;;0.60;;
71475;SDS011;59286;59.274;17.974;2023-04-01T11:03:28;1.98;;;0.40;;
71475;SDS011;59286;59.274;17.974;2023-04-01T11:09:13;0.73;;;0.30;;
71475;SDS011;59286;59.274;17.974;2023-04-01T11:12:13;0.75;;;0.20;;
71475;SDS011;59286;59.274;17.974;2023-04-01T11:15:01;2.35;;;0.30;;
71475;SDS011;59286;59.274;17.974;2023-04-01T11:24:00;1.75;;;0.60;;
71475;SDS011;59286;59.274;17.974;2023-04-01T11:29:41;2.70;;;0.30;;
71475;SDS011;59286;59.274;17.974;2023-04-01T11:32:26;2.47;;;0.40;;
71475;SDS011;59286;59.274;17.974;2023-04-01T11:48:54;1.40;;;0.50;;
71475;SDS011;59286;59.274;17.974;2023-04-01T11:57:13;2.53;;;0.32;;
71475;SDS011;59286;59.274;17.974;2023-04-01T11:59:51;0.32;;;0.20;;
71475;SDS011;59286;59.274;17.974;2023-04-01T12:02:25;2.28;;;0.43;;
71475;SDS011;59286;59.274;17.974;2023-04-01T12:28:25;0.73;;;0.30;;
71475;SDS011;59286;59.274;17.974;2023-04-01T12:33:42;1.77;;;0.38;;
71475;SDS011;59286;59.274;17.974;2023-04-01T12:52:42;2.85;;;0.57;;
71475;SDS011;59286;59.274;17.974;2023-04-01T13:09:50;4.63;;;0.40;;
71475;SDS011;59286;59.274;17.974;2023-04-01T13:15:14;1.45;;;0.30;;
71475;SDS011;59286;59.274;17.974;2023-04-01T13:20:51;1.27;;;0.40;;
71475;SDS011;59286;59.274;17.974;2023-04-01T13:28:26;2.22;;;0.30;;
71475;SDS011;59286;59.274;17.974;2023-04-01T13:30:59;1.15;;;0.17;;
71475;SDS011;59286;59.274;17.974;2023-04-01T13:33:39;3.40;;;0.30;;
71475;SDS011;59286;59.274;17.974;2023-04-01T13:39:07;0.47;;;0.10;;
71475;SDS011;59286;59.274;17.974;2023-04-01T13:44:31;1.00;;;0.32;;
71475;SDS011;59286;59.274;17.974;2023-04-01T14:03:56;0.68;;;0.30;;
71475;SDS011;59286;59.274;17.974;2023-04-01T14:20:37;0.75;;;0.40;;
71475;SDS011;59286;59.274;17.974;2023-04-01T14:23:49;12.48;;;0.95;;
71475;SDS011;59286;59.274;17.974;2023-04-01T14:26:22;2.33;;;0.45;;
71475;SDS011;59286;59.274;17.974;2023-04-01T14:37:07;1.50;;;0.40;;
71475;SDS011;59286;59.274;17.974;2023-04-01T14:43:01;2.13;;;0.40;;
71475;SDS011;59286;59.274;17.974;2023-04-01T14:45:51;0.30;;;0.20;;
71475;SDS011;59286;59.274;17.974;2023-04-01T14:48:33;3.90;;;0.30;;
71475;SDS011;59286;59.274;17.974;2023-04-01T14:53:51;0.40;;;0.30;;
71475;SDS011;59286;59.274;17.974;2023-04-01T14:56:34;0.80;;;0.40;;
71475;SDS011;59286;59.274;17.974;2023-04-01T14:59:04;1.13;;;0.32;;
71475;SDS011;59286;59.274;17.974;2023-04-01T15:01:40;1.67;;;0.40;;
71475;SDS011;59286;59.274;17.974;2023-04-01T15:07:27;3.70;;;0.40;;
71475;SDS011;59286;59.274;17.974;2023-04-01T15:18:43;4.75;;;0.75;;
71475;SDS011;59286;59.274;17.974;2023-04-01T15:29:50;1.35;;;0.63;;
71475;SDS011;59286;59.274;17.974;2023-04-01T15:37:58;1.83;;;0.40;;
71475;SDS011;59286;59.274;17.974;2023-04-01T15:40:43;1.38;;;0.40;;
71475;SDS011;59286;59.274;17.974;2023-04-01T15:43:40;1.77;;;0.40;;
71475;SDS011;59286;59.274;17.974;2023-04-01T15:46:11;2.40;;;0.40;;
71475;SDS011;59286;59.274;17.974;2023-04-01T16:02:48;4.00;;;1.05;;
71475;SDS011;59286;59.274;17.974;2023-04-01T16:13:22;2.10;;;0.80;;
71475;SDS011;59286;59.274;17.974;2023-04-01T16:21:46;2.03;;;0.70;;
71475;SDS011;59286;59.274;17.974;2023-04-01T16:27:16;3.40;;;0.60;;
71475;SDS011;59286;59.274;17.974;2023-04-01T16:38:22;1.55;;;0.50;;
71475;SDS011;59286;59.274;17.974;2023-04-01T16:44:05;2.03;;;0.60;;
71475;SDS011;59286;59.274;17.974;2023-04-01T16:46:39;1.98;;;0.75;;
71475;SDS011;59286;59.274;17.974;2023-04-01T16:51:47;4.13;;;0.60;;
71475;SDS011;59286;59.274;17.974;2023-04-01T16:57:13;7.43;;;0.98;;
71475;SDS011;59286;59.274;17.974;2023-04-01T17:02:35;3.50;;;0.63;;
71475;SDS011;59286;59.274;17.974;2023-04-01T17:05:11;5.57;;;1.15;;
71475;SDS011;59286;59.274;17.974;2023-04-01T17:08:02;3.92;;;1.00;;
71475;SDS011;59286;59.274;17.974;2023-04-01T17:10:53;4.38;;;0.82;;
71475;SDS011;59286;59.274;17.974;2023-04-01T17:16:15;2.88;;;1.10;;
71475;SDS011;59286;59.274;17.974;2023-04-01T17:22:02;2.60;;;1.35;;
71475;SDS011;59286;59.274;17.974;2023-04-01T17:27:44;3.97;;;0.98;;
71475;SDS011;59286;59.274;17.974;2023-04-01T17:30:17;2.83;;;1.13;;
71475;SDS011;59286;59.274;17.974;2023-04-01T17:32:51;4.15;;;1.00;;
71475;SDS011;59286;59.274;17.974;2023-04-01T17:35:32;3.15;;;1.17;;
71475;SDS011;59286;59.274;17.974;2023-04-01T17:43:44;6.88;;;1.30;;
71475;SDS011;59286;59.274;17.974;2023-04-01T17:46:30;2.83;;;1.38;;
71475;SDS011;59286;59.274;17.974;2023-04-01T17:51:34;5.63;;;1.48;;
71475;SDS011;59286;59.274;17.974;2023-04-01T17:54:20;3.72;;;1.20;;
71475;SDS011;59286;59.274;17.974;2023-04-01T18:03:11;10.02;;;1.77;;
71475;SDS011;59286;59.274;17.974;2023-04-01T18:05:21;6.15;;;1.40;;
71475;SDS011;59286;59.274;17.974;2023-04-01T18:16:08;6.20;;;1.45;;
71475;SDS011;59286;59.274;17.974;2023-04-01T18:21:36;10.55;;;1.77;;
71475;SDS011;59286;59.274;17.974;2023-04-01T18:26:38;6.82;;;1.85;;
71475;SDS011;59286;59.274;17.974;2023-04-01T18:29:17;14.00;;;2.15;;
71475;SDS011;59286;59.274;17.974;2023-04-01T18:31:54;6.25;;;1.77;;
71475;SDS011;59286;59.274;17.974;2023-04-01T18:34:53;9.63;;;1.83;;
71475;SDS011;59286;59.274;17.974;2023-04-01T18:43:00;9.55;;;1.90;;
71475;SDS011;59286;59.274;17.974;2023-04-01T18:50:42;9.13;;;1.65;;
71475;SDS011;59286;59.274;17.974;2023-04-01T18:53:10;7.32;;;1.52;;
71475;SDS011;59286;59.274;17.974;2023-04-01T18:55:51;15.50;;;2.08;;
71475;SDS011;59286;59.274;17.974;2023-04-01T18:58:33;7.07;;;2.05;;
71475;SDS011;59286;59.274;17.974;2023-04-01T19:04:08;6.40;;;1.80;;
71475;SDS011;59286;59.274;17.974;2023-04-01T19:06:51;8.93;;;2.10;;
71475;SDS011;59286;59.274;17.974;2023-04-01T19:09:32;7.70;;;1.98;;
71475;SDS011;59286;59.274;17.974;2023-04-01T19:17:20;9.82;;;1.80;;
71475;SDS011;59286;59.274;17.974;2023-04-01T19:33:28;16.40;;;2.35;;
71475;SDS011;59286;59.274;17.974;2023-04-01T19:36:16;8.35;;;2.15;;
71475;SDS011;59286;59.274;17.974;2023-04-01T19:41:51;11.40;;;1.67;;
71475;SDS011;59286;59.274;17.974;2023-04-01T19:45:06;5.15;;;1.65;;
71475;SDS011;59286;59.274;17.974;2023-04-01T19:50:30;9.20;;;1.92;;
71475;SDS011;59286;59.274;17.974;2023-04-01T19:53:15;9.60;;;1.85;;
71475;SDS011;59286;59.274;17.974;2023-04-01T19:59:01;6.25;;;1.90;;
71475;SDS011;59286;59.274;17.974;2023-04-01T20:01:35;8.23;;;1.65;;
71475;SDS011;59286;59.274;17.974;2023-04-01T20:04:07;7.22;;;2.20;;
71475;SDS011;59286;59.274;17.974;2023-04-01T20:19:53;8.75;;;1.67;;
71475;SDS011;59286;59.274;17.974;2023-04-01T20:24:53;10.10;;;2.38;;
71475;SDS011;59286;59.274;17.974;2023-04-01T20:27:38;9.13;;;1.90;;
71475;SDS011;59286;59.274;17.974;2023-04-01T20:30:30;4.75;;;1.63;;
71475;SDS011;59286;59.274;17.974;2023-04-01T20:33:21;8.40;;;1.90;;
71475;SDS011;59286;59.274;17.974;2023-04-01T20:36:26;6.28;;;1.60;;
71475;SDS011;59286;59.274;17.974;2023-04-01T20:50:19;5.40;;;2.00;;
71475;SDS011;59286;59.274;17.974;2023-04-01T20:53:11;7.82;;;2.17;;
71475;SDS011;59286;59.274;17.974;2023-04-01T21:04:30;12.40;;;1.90;;
71475;SDS011;59286;59.274;17.974;2023-04-01T21:17:42;14.73;;;2.25;;
71475;SDS011;59286;59.274;17.974;2023-04-01T21:29:18;6.88;;;2.20;;
71475;SDS011;59286;59.274;17.974;2023-04-01T21:34:59;11.70;;;1.73;;
71475;SDS011;59286;59.274;17.974;2023-04-01T21:45:27;10.52;;;2.33;;
71475;SDS011;59286;59.274;17.974;2023-04-01T22:02:42;9.23;;;2.10;;
71475;SDS011;59286;59.274;17.974;2023-04-01T22:05:17;6.05;;;1.83;;
71475;SDS011;59286;59.274;17.974;2023-04-01T22:07:47;7.70;;;1.85;;
71475;SDS011;59286;59.274;17.974;2023-04-01T22:10:28;6.45;;;1.92;;
71475;SDS011;59286;59.274;17.974;2023-04-01T22:13:10;8.07;;;1.73;;
71475;SDS011;59286;59.274;17.974;2023-04-01T22:15:48;11.05;;;1.70;;
71475;SDS011;59286;59.274;17.974;2023-04-01T22:18:38;8.95;;;1.65;;
71475;SDS011;59286;59.274;17.974;2023-04-01T22:21:24;12.63;;;2.65;;
71475;SDS011;59286;59.274;17.974;2023-04-01T22:26:50;8.60;;;1.73;;
71475;SDS011;59286;59.274;17.974;2023-04-01T22:29:35;6.82;;;1.98;;
71475;SDS011;59286;59.274;17.974;2023-04-01T22:32:13;9.98;;;1.88;;
71475;SDS011;59286;59.274;17.974;2023-04-01T22:50:53;7.22;;;1.48;;
71475;SDS011;59286;59.274;17.974;2023-04-01T22:56:20;9.35;;;1.75;;
71475;SDS011;59286;59.274;17.974;2023-04-01T23:02:00;6.85;;;1.50;;
71475;SDS011;59286;59.274;17.974;2023-04-01T23:04:32;12.18;;;1.95;;
71475;SDS011;59286;59.274;17.974;2023-04-01T23:07:05;10.57;;;1.90;;
71475;SDS011;59286;59.274;17.974;2023-04-01T23:10:02;8.48;;;1.80;;
71475;SDS011;59286;59.274;17.974;2023-04-01T23:12:31;7.35;;;1.73;;
71475;SDS011;59286;59.274;17.974;2023-04-01T23:14:59;10.57;;;1.90;;
71475;SDS011;59286;59.274;17.974;2023-04-01T23:22:57;11.88;;;2.20;;
71475;SDS011;59286;59.274;17.974;2023-04-01T23:28:32;9.45;;;1.90;;
71475;SDS011;59286;59.274;17.974;2023-04-01T23:31:24;10.77;;;1.80;;
71475;SDS011;59286;59.274;17.974;2023-04-01T23:33:55;9.60;;;1.98;;
71475;SDS011;59286;59.274;17.974;2023-04-01T23:36:23;9.43;;;1.70;;
71475;SDS011;59286;59.274;17.974;2023-04-01T23:38:49;8.27;;;1.95;;
71475;SDS011;59286;59.274;17.974;2023-04-01T23:41:27;6.28;;;1.70;;
71475;SDS011;59286;59.274;17.974;2023-04-01T23:43:59;6.50;;;1.55;;
71475;SDS011;59286;59.274;17.974;2023-04-01T23:46:27;8.75;;;1.63;;
71475;SDS011;59286;59.274;17.974;2023-04-01T23:48:55;5.82;;;1.92;;
71475;SDS011;59286;59.274;17.974;2023-04-01T23:51:22;7.47;;;1.80;;
71475;SDS011;59286;59.274;17.974;2023-04-01T23:54:04;10.95;;;1.60;;
71475;SDS011;59286;59.274;17.974;2023-04-01T23:56:53;9.57;;;1.90;;
71475;SDS011;59286;59.274;17.974;2023-04-01T23:59:24;10.68;;;2.47;;
